PWSweather.com
Personal Weather Stations
Station Observations
UXOLA
Alcoy, AlcoyES

AlcoyAlcoyES

Lat: 38.70299, Lon: -0.48184

Elevation: 1935

Station Type: PCE FWS-20,

http://www.fiestasalcoy.xyz

High Low Average
Temperature 49.8°F9.9°C 39.7°F4.3°C 44.2°F6.8°C
Dew Point 30.8°F-0.7°C 14.6°F-9.7°C 24.6°F-4.1°C
Winds 17.4 mph 28.0 kmh 0.7 mph 1.1 kmh 7.0 mph SSW11.3 kmh SSW
Wind Gusts 40.3 mph64.9 kmh 6.0 mph9.7 kmh 18.0 mph29.0 kmh
Humidity 61% 30% 47%
Pressure 29.79 in1008.8 mb 29.29 in991.9 mb -
Precipitation 0.01 in0.3 mm - -
Hour Temp Dew Point Humidity Winds Wind Gusts Pressure Precip Precip Rate Daily Precip Total
12:00 AM 43.3°F6.3°C 30.8°F-0.7°C 61% 13.0 mph NW20.9 kmh NW 19.7 mph31.7 kmh 29.32 in992.9 mb 0.00 in0.0 mm 0.00 in0.0 mm 0.00 in0.0 mm
12:15 AM 43.3°F6.3°C 30.8°F-0.7°C 61% 9.2 mph NW14.8 kmh NW 19.7 mph31.7 kmh 29.32 in992.9 mb 0.00 in0.0 mm 0.00 in0.0 mm 0.00 in0.0 mm
12:30 AM 43.2°F6.2°C 30.6°F-0.8°C 61% 4.5 mph W7.2 kmh W 13.0 mph20.9 kmh 29.31 in992.6 mb 0.00 in0.0 mm 0.00 in0.0 mm 0.00 in0.0 mm
12:45 AM 43.3°F6.3°C 30.4°F-0.9°C 60% 5.4 mph NW8.7 kmh NW 18.3 mph29.5 kmh 29.30 in992.2 mb 0.00 in0.0 mm 0.00 in0.0 mm 0.00 in0.0 mm
01:00 AM 43.5°F6.4°C 30.6°F-0.8°C 60% 3.8 mph WSW6.1 kmh WSW 19.0 mph30.6 kmh 29.30 in992.2 mb 0.00 in0.0 mm 0.00 in0.0 mm 0.00 in0.0 mm
01:15 AM 43.5°F6.4°C 30.6°F-0.8°C 60% 7.6 mph WSW12.2 kmh WSW 14.5 mph23.3 kmh 29.30 in992.2 mb 0.00 in0.0 mm 0.00 in0.0 mm 0.00 in0.0 mm
01:30 AM 43.5°F6.4°C 30.6°F-0.8°C 60% 9.8 mph ENE15.8 kmh ENE 13.6 mph21.9 kmh 29.29 in991.9 mb 0.00 in0.0 mm 0.00 in0.0 mm 0.00 in0.0 mm
01:45 AM 43.5°F6.4°C 30.6°F-0.8°C 60% 10.7 mph NW17.2 kmh NW 40.3 mph64.9 kmh 29.30 in992.2 mb 0.01 in0.3 mm 0.04 in1.0 mm 0.01 in0.3 mm
02:00 AM 43.5°F6.4°C 30.6°F-0.8°C 60% 9.2 mph WNW14.8 kmh WNW 24.4 mph39.3 kmh 29.31 in992.6 mb 0.01 in0.3 mm 0.00 in0.0 mm 0.01 in0.3 mm
02:15 AM 43.7°F6.5°C 30.7°F-0.7°C 60% 6.9 mph NW11.1 kmh NW 34.2 mph55.0 kmh 29.31 in992.6 mb 0.01 in0.3 mm 0.00 in0.0 mm 0.01 in0.3 mm
02:30 AM 43.5°F6.4°C 30.6°F-0.8°C 60% 12.1 mph WNW19.5 kmh WNW 32.0 mph51.5 kmh 29.31 in992.6 mb 0.01 in0.3 mm 0.00 in0.0 mm 0.01 in0.3 mm
02:45 AM 43.3°F6.3°C 30.4°F-0.9°C 60% 8.3 mph NNW13.4 kmh NNW 22.8 mph36.7 kmh 29.31 in992.6 mb 0.00 in0.0 mm 0.00 in0.0 mm 0.01 in0.3 mm
03:00 AM 43.3°F6.3°C 30.4°F-0.9°C 60% 13.0 mph NW20.9 kmh NW 19.0 mph30.6 kmh 29.32 in992.9 mb 0.00 in0.0 mm 0.00 in0.0 mm 0.01 in0.3 mm
03:15 AM 43.2°F6.2°C 30.2°F-1.0°C 60% 7.6 mph SW12.2 kmh SW 22.1 mph35.6 kmh 29.33 in993.2 mb 0.00 in0.0 mm 0.00 in0.0 mm 0.01 in0.3 mm
03:30 AM 43.0°F6.1°C 30.1°F-1.1°C 60% 13.6 mph NW21.9 kmh NW 20.6 mph33.2 kmh 29.33 in993.2 mb 0.00 in0.0 mm 0.00 in0.0 mm 0.01 in0.3 mm
03:45 AM 42.8°F6.0°C 29.9°F-1.2°C 60% 11.4 mph ESE18.3 kmh ESE 18.3 mph29.5 kmh 29.32 in992.9 mb 0.00 in0.0 mm 0.00 in0.0 mm 0.01 in0.3 mm
04:00 AM 42.6°F5.9°C 29.7°F-1.3°C 60% 8.3 mph SE13.4 kmh SE 15.2 mph24.5 kmh 29.34 in993.6 mb 0.00 in0.0 mm 0.00 in0.0 mm 0.01 in0.3 mm
04:15 AM 42.4°F5.8°C 29.6°F-1.3°C 60% 10.7 mph NW17.2 kmh NW 23.5 mph37.8 kmh 29.33 in993.2 mb 0.00 in0.0 mm 0.00 in0.0 mm 0.01 in0.3 mm
04:30 AM 42.6°F5.9°C 29.7°F-1.3°C 60% 10.7 mph WNW17.2 kmh WNW 22.8 mph36.7 kmh 29.34 in993.6 mb 0.00 in0.0 mm 0.00 in0.0 mm 0.01 in0.3 mm
04:45 AM 42.4°F5.8°C 29.6°F-1.3°C 60% 6.0 mph NW9.7 kmh NW 27.3 mph43.9 kmh 29.32 in992.9 mb 0.00 in0.0 mm 0.00 in0.0 mm 0.01 in0.3 mm
05:00 AM 42.3°F5.7°C 29.4°F-1.4°C 60% 9.8 mph W15.8 kmh W 27.3 mph43.9 kmh 29.34 in993.6 mb 0.00 in0.0 mm 0.00 in0.0 mm 0.01 in0.3 mm
05:15 AM 42.1°F5.6°C 29.2°F-1.6°C 60% 12.1 mph NNE19.5 kmh NNE 20.6 mph33.2 kmh 29.35 in993.9 mb 0.00 in0.0 mm 0.00 in0.0 mm 0.01 in0.3 mm
05:30 AM 42.1°F5.6°C 29.2°F-1.6°C 60% 7.6 mph WNW12.2 kmh WNW 15.9 mph25.6 kmh 29.35 in993.9 mb 0.00 in0.0 mm 0.00 in0.0 mm 0.01 in0.3 mm
05:45 AM 42.3°F5.7°C 29.4°F-1.4°C 60% 6.9 mph NE11.1 kmh NE 22.1 mph35.6 kmh 29.35 in993.9 mb 0.00 in0.0 mm 0.00 in0.0 mm 0.01 in0.3 mm
06:00 AM 42.3°F5.7°C 29.4°F-1.4°C 60% 9.2 mph WSW14.8 kmh WSW 19.7 mph31.7 kmh 29.36 in994.2 mb 0.00 in0.0 mm 0.00 in0.0 mm 0.01 in0.3 mm
06:15 AM 42.1°F5.6°C 29.2°F-1.6°C 60% 13.0 mph NW20.9 kmh NW 22.1 mph35.6 kmh 29.36 in994.2 mb 0.00 in0.0 mm 0.00 in0.0 mm 0.01 in0.3 mm
06:30 AM 41.9°F5.5°C 29.0°F-1.7°C 60% 6.9 mph NW11.1 kmh NW 14.5 mph23.3 kmh 29.38 in994.9 mb 0.00 in0.0 mm 0.00 in0.0 mm 0.01 in0.3 mm
06:45 AM 41.5°F5.3°C 28.7°F-1.8°C 60% 6.9 mph WSW11.1 kmh WSW 22.8 mph36.7 kmh 29.38 in994.9 mb 0.00 in0.0 mm 0.00 in0.0 mm 0.01 in0.3 mm
07:00 AM 41.5°F5.3°C 28.7°F-1.8°C 60% 9.8 mph NW15.8 kmh NW 22.1 mph35.6 kmh 29.38 in994.9 mb 0.00 in0.0 mm 0.00 in0.0 mm 0.01 in0.3 mm
07:15 AM 41.5°F5.3°C 29.1°F-1.6°C 61% 15.2 mph NW24.5 kmh NW 25.9 mph41.7 kmh 29.38 in994.9 mb 0.00 in0.0 mm 0.00 in0.0 mm 0.01 in0.3 mm
07:30 AM 41.4°F5.2°C 28.9°F-1.7°C 61% 6.0 mph NW9.7 kmh NW 22.8 mph36.7 kmh 29.38 in994.9 mb 0.00 in0.0 mm 0.00 in0.0 mm 0.01 in0.3 mm
07:45 AM 41.4°F5.2°C 28.9°F-1.7°C 61% 3.8 mph NW6.1 kmh NW 25.1 mph40.4 kmh 29.38 in994.9 mb 0.00 in0.0 mm 0.00 in0.0 mm 0.01 in0.3 mm
08:00 AM 41.5°F5.3°C 28.7°F-1.8°C 60% 6.0 mph NNE9.7 kmh NNE 15.2 mph24.5 kmh 29.39 in995.3 mb 0.00 in0.0 mm 0.00 in0.0 mm 0.01 in0.3 mm
08:15 AM 41.9°F5.5°C 29.0°F-1.7°C 60% 6.9 mph N11.1 kmh N 29.8 mph48.0 kmh 29.40 in995.6 mb 0.00 in0.0 mm 0.00 in0.0 mm 0.01 in0.3 mm
08:30 AM 41.9°F5.5°C 28.6°F-1.9°C 59% 13.0 mph ESE20.9 kmh ESE 26.6 mph42.8 kmh 29.39 in995.3 mb 0.00 in0.0 mm 0.00 in0.0 mm 0.01 in0.3 mm
08:45 AM 41.9°F5.5°C 29.0°F-1.7°C 60% 13.6 mph N21.9 kmh N 20.6 mph33.2 kmh 29.40 in995.6 mb 0.00 in0.0 mm 0.00 in0.0 mm 0.01 in0.3 mm
09:00 AM 42.1°F5.6°C 28.4°F-2.0°C 58% 8.3 mph ENE13.4 kmh ENE 18.3 mph29.5 kmh 29.40 in995.6 mb 0.00 in0.0 mm 0.00 in0.0 mm 0.01 in0.3 mm
09:15 AM 42.4°F5.8°C 27.9°F-2.3°C 56% 12.1 mph SE19.5 kmh SE 22.1 mph35.6 kmh 29.40 in995.6 mb 0.00 in0.0 mm 0.00 in0.0 mm 0.01 in0.3 mm
09:30 AM 42.8°F6.0°C 27.8°F-2.3°C 55% 7.6 mph SSE12.2 kmh SSE 18.3 mph29.5 kmh 29.41 in995.9 mb 0.00 in0.0 mm 0.00 in0.0 mm 0.01 in0.3 mm
09:45 AM 43.5°F6.4°C 28.4°F-2.0°C 55% 6.0 mph SE9.7 kmh SE 16.8 mph27.0 kmh 29.44 in997.0 mb 0.00 in0.0 mm 0.00 in0.0 mm 0.01 in0.3 mm
10:00 AM 43.9°F6.6°C 28.3°F-2.1°C 54% 17.4 mph N28.0 kmh N 26.6 mph42.8 kmh 29.45 in997.3 mb 0.00 in0.0 mm 0.00 in0.0 mm 0.01 in0.3 mm
10:15 AM 44.2°F6.8°C 26.8°F-2.9°C 50% 8.3 mph WNW13.4 kmh WNW 25.9 mph41.7 kmh 29.46 in997.6 mb 0.00 in0.0 mm 0.00 in0.0 mm 0.01 in0.3 mm
10:30 AM 44.6°F7.0°C 27.1°F-2.7°C 50% 6.0 mph SE9.7 kmh SE 15.2 mph24.5 kmh 29.46 in997.6 mb 0.00 in0.0 mm 0.00 in0.0 mm 0.01 in0.3 mm
10:45 AM 44.6°F7.0°C 27.1°F-2.7°C 50% 6.0 mph NW9.7 kmh NW 25.1 mph40.4 kmh 29.48 in998.3 mb 0.00 in0.0 mm 0.00 in0.0 mm 0.01 in0.3 mm
11:00 AM 45.5°F7.5°C 28.0°F-2.2°C 50% 6.0 mph SSW9.7 kmh SSW 12.1 mph19.5 kmh 29.47 in998.0 mb 0.00 in0.0 mm 0.00 in0.0 mm 0.01 in0.3 mm
11:15 AM 46.0°F7.8°C 25.9°F-3.4°C 45% 7.6 mph NW12.2 kmh NW 22.8 mph36.7 kmh 29.47 in998.0 mb 0.00 in0.0 mm 0.00 in0.0 mm 0.01 in0.3 mm
11:30 AM 46.4°F8.0°C 25.7°F-3.5°C 44% 13.0 mph SSW20.9 kmh SSW 21.3 mph34.3 kmh 29.49 in998.6 mb 0.00 in0.0 mm 0.00 in0.0 mm 0.01 in0.3 mm
11:45 AM 46.6°F8.1°C 24.7°F-4.1°C 42% 7.6 mph SW12.2 kmh SW 21.3 mph34.3 kmh 29.49 in998.6 mb 0.00 in0.0 mm 0.00 in0.0 mm 0.01 in0.3 mm
12:00 PM 46.9°F8.3°C 25.1°F-3.8°C 42% 6.0 mph W9.7 kmh W 16.8 mph27.0 kmh 29.50 in999.0 mb 0.00 in0.0 mm 0.00 in0.0 mm 0.01 in0.3 mm
12:15 PM 46.9°F8.3°C 24.5°F-4.2°C 41% 10.7 mph NW17.2 kmh NW 17.4 mph28.0 kmh 29.49 in998.6 mb 0.00 in0.0 mm 0.00 in0.0 mm 0.01 in0.3 mm
12:30 PM 46.9°F8.3°C 24.5°F-4.2°C 41% 9.8 mph NW15.8 kmh NW 21.3 mph34.3 kmh 29.50 in999.0 mb 0.00 in0.0 mm 0.00 in0.0 mm 0.01 in0.3 mm
12:45 PM 47.1°F8.4°C 24.6°F-4.1°C 41% 10.7 mph E17.2 kmh E 25.9 mph41.7 kmh 29.50 in999.0 mb 0.00 in0.0 mm 0.00 in0.0 mm 0.01 in0.3 mm
01:00 PM 47.8°F8.8°C 24.7°F-4.1°C 40% 5.4 mph WNW8.7 kmh WNW 19.7 mph31.7 kmh 29.51 in999.3 mb 0.00 in0.0 mm 0.00 in0.0 mm 0.01 in0.3 mm
01:15 PM 47.3°F8.5°C 24.2°F-4.3°C 40% 6.9 mph NW11.1 kmh NW 22.1 mph35.6 kmh 29.51 in999.3 mb 0.00 in0.0 mm 0.00 in0.0 mm 0.01 in0.3 mm
01:30 PM 47.7°F8.7°C 24.5°F-4.2°C 40% 7.6 mph WSW12.2 kmh WSW 18.3 mph29.5 kmh 29.51 in999.3 mb 0.00 in0.0 mm 0.00 in0.0 mm 0.01 in0.3 mm
01:45 PM 48.6°F9.2°C 25.4°F-3.7°C 40% 9.8 mph N15.8 kmh N 29.8 mph48.0 kmh 29.50 in999.0 mb 0.00 in0.0 mm 0.00 in0.0 mm 0.01 in0.3 mm
02:00 PM 48.7°F9.3°C 25.5°F-3.6°C 40% 11.4 mph WSW18.3 kmh WSW 19.0 mph30.6 kmh 29.51 in999.3 mb 0.00 in0.0 mm 0.00 in0.0 mm 0.01 in0.3 mm
02:15 PM 48.0°F8.9°C 24.3°F-4.3°C 39% 6.0 mph NW9.7 kmh NW 26.6 mph42.8 kmh 29.51 in999.3 mb 0.00 in0.0 mm 0.00 in0.0 mm 0.01 in0.3 mm
02:30 PM 48.7°F9.3°C 25.5°F-3.6°C 40% 14.5 mph NW23.3 kmh NW 19.7 mph31.7 kmh 29.52 in999.7 mb 0.00 in0.0 mm 0.00 in0.0 mm 0.01 in0.3 mm
02:45 PM 48.6°F9.2°C 24.7°F-4.1°C 39% 6.0 mph NNW9.7 kmh NNW 18.3 mph29.5 kmh 29.52 in999.7 mb 0.00 in0.0 mm 0.00 in0.0 mm 0.01 in0.3 mm
03:00 PM 49.1°F9.5°C 25.2°F-3.8°C 39% 7.6 mph SSE12.2 kmh SSE 14.5 mph23.3 kmh 29.52 in999.7 mb 0.00 in0.0 mm 0.00 in0.0 mm 0.01 in0.3 mm
03:15 PM 49.3°F9.6°C 25.4°F-3.7°C 39% 3.8 mph N6.1 kmh N 13.6 mph21.9 kmh 29.53 in1000.0 mb 0.00 in0.0 mm 0.00 in0.0 mm 0.01 in0.3 mm
03:30 PM 49.1°F9.5°C 25.2°F-3.8°C 39% 5.4 mph N8.7 kmh N 23.5 mph37.8 kmh 29.54 in1000.3 mb 0.00 in0.0 mm 0.00 in0.0 mm 0.01 in0.3 mm
03:45 PM 49.6°F9.8°C 22.4°F-5.3°C 34% 6.9 mph SSE11.1 kmh SSE 14.5 mph23.3 kmh 29.55 in1000.7 mb 0.00 in0.0 mm 0.00 in0.0 mm 0.01 in0.3 mm
04:00 PM 49.8°F9.9°C 21.2°F-6.0°C 32% 1.6 mph E2.6 kmh E 15.2 mph24.5 kmh 29.57 in1001.4 mb 0.00 in0.0 mm 0.00 in0.0 mm 0.01 in0.3 mm
04:15 PM 48.9°F9.4°C 19.6°F-6.9°C 31% 6.0 mph SE9.7 kmh SE 12.1 mph19.5 kmh 29.57 in1001.4 mb 0.00 in0.0 mm 0.00 in0.0 mm 0.01 in0.3 mm
04:30 PM 48.0°F8.9°C 18.8°F-7.3°C 31% 6.0 mph NNE9.7 kmh NNE 15.2 mph24.5 kmh 29.59 in1002.0 mb 0.00 in0.0 mm 0.00 in0.0 mm 0.01 in0.3 mm
04:45 PM 47.5°F8.6°C 17.6°F-8.0°C 30% 3.1 mph NW5.0 kmh NW 15.9 mph25.6 kmh 29.59 in1002.0 mb 0.00 in0.0 mm 0.00 in0.0 mm 0.01 in0.3 mm
05:00 PM 47.3°F8.5°C 17.5°F-8.1°C 30% 11.4 mph NNW18.3 kmh NNW 16.8 mph27.0 kmh 29.59 in1002.0 mb 0.00 in0.0 mm 0.00 in0.0 mm 0.01 in0.3 mm
05:15 PM 47.1°F8.4°C 17.3°F-8.2°C 30% 6.0 mph SE9.7 kmh SE 16.8 mph27.0 kmh 29.59 in1002.0 mb 0.00 in0.0 mm 0.00 in0.0 mm 0.01 in0.3 mm
05:30 PM 47.7°F8.7°C 18.5°F-7.5°C 31% 4.5 mph SE7.2 kmh SE 8.3 mph13.4 kmh 29.60 in1002.4 mb 0.00 in0.0 mm 0.00 in0.0 mm 0.01 in0.3 mm
05:45 PM 47.1°F8.4°C 18.1°F-7.7°C 31% 4.5 mph SSE7.2 kmh SSE 9.2 mph14.8 kmh 29.62 in1003.0 mb 0.00 in0.0 mm 0.00 in0.0 mm 0.01 in0.3 mm
06:00 PM 46.4°F8.0°C 16.7°F-8.5°C 30% 1.6 mph E2.6 kmh E 8.3 mph13.4 kmh 29.64 in1003.7 mb 0.00 in0.0 mm 0.00 in0.0 mm 0.01 in0.3 mm
06:15 PM 45.9°F7.7°C 16.2°F-8.8°C 30% 1.6 mph SE2.6 kmh SE 7.6 mph12.2 kmh 29.64 in1003.7 mb 0.00 in0.0 mm 0.00 in0.0 mm 0.01 in0.3 mm
06:30 PM 45.3°F7.4°C 15.7°F-9.1°C 30% 1.6 mph SE2.6 kmh SE 9.8 mph15.8 kmh 29.65 in1004.1 mb 0.00 in0.0 mm 0.00 in0.0 mm 0.01 in0.3 mm
06:45 PM 45.1°F7.3°C 15.6°F-9.1°C 30% 10.7 mph E17.2 kmh E 14.5 mph23.3 kmh 29.65 in1004.1 mb 0.00 in0.0 mm 0.00 in0.0 mm 0.01 in0.3 mm
07:00 PM 45.0°F7.2°C 15.4°F-9.2°C 30% 3.1 mph SSE5.0 kmh SSE 8.3 mph13.4 kmh 29.66 in1004.4 mb 0.00 in0.0 mm 0.00 in0.0 mm 0.01 in0.3 mm
07:15 PM 44.8°F7.1°C 15.3°F-9.3°C 30% 6.0 mph S9.7 kmh S 12.1 mph19.5 kmh 29.66 in1004.4 mb 0.00 in0.0 mm 0.00 in0.0 mm 0.01 in0.3 mm
07:30 PM 44.8°F7.1°C 15.3°F-9.3°C 30% 3.8 mph SE6.1 kmh SE 9.8 mph15.8 kmh 29.68 in1005.1 mb 0.00 in0.0 mm 0.00 in0.0 mm 0.01 in0.3 mm
07:45 PM 44.4°F6.9°C 15.0°F-9.4°C 30% 5.4 mph E8.7 kmh E 6.9 mph11.1 kmh 29.69 in1005.4 mb 0.00 in0.0 mm 0.00 in0.0 mm 0.01 in0.3 mm
08:00 PM 44.4°F6.9°C 15.0°F-9.4°C 30% 0.7 mph E1.1 kmh E 8.3 mph13.4 kmh 29.70 in1005.8 mb 0.00 in0.0 mm 0.00 in0.0 mm 0.01 in0.3 mm
08:15 PM 44.1°F6.7°C 14.6°F-9.7°C 30% 6.0 mph E9.7 kmh E 7.6 mph12.2 kmh 29.71 in1006.1 mb 0.00 in0.0 mm 0.00 in0.0 mm 0.01 in0.3 mm
08:30 PM 43.7°F6.5°C 16.5°F-8.6°C 33% 4.5 mph E7.2 kmh E 7.6 mph12.2 kmh 29.71 in1006.1 mb 0.00 in0.0 mm 0.00 in0.0 mm 0.01 in0.3 mm
08:45 PM 43.3°F6.3°C 16.2°F-8.8°C 33% 3.8 mph ESE6.1 kmh ESE 8.3 mph13.4 kmh 29.73 in1006.8 mb 0.00 in0.0 mm 0.00 in0.0 mm 0.01 in0.3 mm
09:00 PM 43.0°F6.1°C 17.2°F-8.2°C 35% 6.0 mph E9.7 kmh E 10.7 mph17.2 kmh 29.73 in1006.8 mb 0.00 in0.0 mm 0.00 in0.0 mm 0.01 in0.3 mm
09:15 PM 42.3°F5.7°C 18.5°F-7.5°C 38% 2.2 mph NE3.5 kmh NE 6.0 mph9.7 kmh 29.73 in1006.8 mb 0.00 in0.0 mm 0.00 in0.0 mm 0.01 in0.3 mm
09:30 PM 41.9°F5.5°C 19.4°F-7.0°C 40% 3.1 mph NNE5.0 kmh NNE 16.8 mph27.0 kmh 29.74 in1007.1 mb 0.00 in0.0 mm 0.00 in0.0 mm 0.01 in0.3 mm
09:45 PM 41.5°F5.3°C 19.0°F-7.2°C 40% 7.6 mph ENE12.2 kmh ENE 11.4 mph18.3 kmh 29.75 in1007.5 mb 0.00 in0.0 mm 0.00 in0.0 mm 0.01 in0.3 mm
10:00 PM 41.2°F5.1°C 19.3°F-7.1°C 41% 1.6 mph SW2.6 kmh SW 8.3 mph13.4 kmh 29.75 in1007.5 mb 0.00 in0.0 mm 0.00 in0.0 mm 0.01 in0.3 mm
10:15 PM 40.8°F4.9°C 19.5°F-6.9°C 42% 3.8 mph SW6.1 kmh SW 9.2 mph14.8 kmh 29.76 in1007.8 mb 0.00 in0.0 mm 0.00 in0.0 mm 0.01 in0.3 mm
10:30 PM 40.6°F4.8°C 19.4°F-7.0°C 42% 0.7 mph W1.1 kmh W 9.2 mph14.8 kmh 29.77 in1008.1 mb 0.00 in0.0 mm 0.00 in0.0 mm 0.01 in0.3 mm
10:45 PM 40.5°F4.7°C 19.7°F-6.8°C 43% 4.5 mph NW7.2 kmh NW 9.8 mph15.8 kmh 29.77 in1008.1 mb 0.00 in0.0 mm 0.00 in0.0 mm 0.01 in0.3 mm
11:00 PM 40.1°F4.5°C 20.0°F-6.7°C 44% 3.1 mph NW5.0 kmh NW 7.6 mph12.2 kmh 29.78 in1008.5 mb 0.00 in0.0 mm 0.00 in0.0 mm 0.01 in0.3 mm
11:15 PM 39.9°F4.4°C 19.8°F-6.8°C 44% 3.1 mph E5.0 kmh E 10.7 mph17.2 kmh 29.78 in1008.5 mb 0.00 in0.0 mm 0.00 in0.0 mm 0.01 in0.3 mm
11:30 PM 39.9°F4.4°C 19.3°F-7.1°C 43% 7.6 mph S12.2 kmh S 9.8 mph15.8 kmh 29.78 in1008.5 mb 0.00 in0.0 mm 0.00 in0.0 mm 0.01 in0.3 mm
11:45 PM 39.7°F4.3°C 19.1°F-7.2°C 43% 1.6 mph E2.6 kmh E 9.8 mph15.8 kmh 29.79 in1008.8 mb 0.00 in0.0 mm 0.00 in0.0 mm 0.01 in0.3 mm